Terminal Aerodrome Forecast
Issued by NWS Amarillo, TX

Home | Current Version | Previous Version | Text Only | Print | Product List | Glossary On
Versions: 1 2 3 4 5 6 7 8 9 10 11 12 13 14 15
000
FTUS44 KAMA 221400 AAA
TAFDHT
TAF AMD
KDHT 221427Z 2214/2312 20011KT 6SM BR SCT030 OVC150
      TEMPO 2214/2216 3SM BR
     FM221700 20015KT P6SM BKN050
     FM230200 24006KT 2SM BR SCT015=

USA.gov is the U.S. government's official web portal to all federal, state and local government web resources and services.